sensor_id;sensor_type;location;lat;lon;timestamp;pressure;altitude;pressure_sealevel;temperature;humidity
59654;BME280;66556;52.008;5.432;2023-01-28T00:02:41;102983.99999999999;;;16.98;32.81
59654;BME280;66556;52.008;5.432;2023-01-28T00:04:17;102988.00000000001;;;16.9;32.92
59654;BME280;66556;52.008;5.432;2023-01-28T00:06:01;102983.99999999999;;;17.14;32.87
59654;BME280;66556;52.008;5.432;2023-01-28T00:07:38;102983.0;;;17.21;32.18
59654;BME280;66556;52.008;5.432;2023-01-28T00:10:50;102979.0;;;17.14;32.46
59654;BME280;66556;52.008;5.432;2023-01-28T00:12:26;102981.0;;;17.18;31.39
59654;BME280;66556;52.008;5.432;2023-01-28T00:14:04;102981.0;;;17.2;31.63
59654;BME280;66556;52.008;5.432;2023-01-28T00:17:17;102981.0;;;17.13;31.67
59654;BME280;66556;52.008;5.432;2023-01-28T00:18:53;102978.0;;;17.13;31.38
59654;BME280;66556;52.008;5.432;2023-01-28T00:20:30;102982.0;;;17.75;30.95
59654;BME280;66556;52.008;5.432;2023-01-28T00:23:47;102983.99999999999;;;17.48;31.08
59654;BME280;66556;52.008;5.432;2023-01-28T00:25:26;102983.0;;;17.22;31.57
59654;BME280;66556;52.008;5.432;2023-01-28T00:27:02;102983.0;;;17.43;31.19
59654;BME280;66556;52.008;5.432;2023-01-28T00:28:39;102986.99999999999;;;17.05;31.66
59654;BME280;66556;52.008;5.432;2023-01-28T00:31:53;102986.99999999999;;;17.41;31.19
59654;BME280;66556;52.008;5.432;2023-01-28T00:33:30;102988.00000000001;;;17.47;31.08
59654;BME280;66556;52.008;5.432;2023-01-28T00:35:08;102989.00000000001;;;17.27;31.64
59654;BME280;66556;52.008;5.432;2023-01-28T00:38:20;102989.00000000001;;;16.7;32.6
59654;BME280;66556;52.008;5.432;2023-01-28T00:39:57;102989.00000000001;;;16.78;32.32
59654;BME280;66556;52.008;5.432;2023-01-28T00:41:33;102996.0;;;16.84;32.56
59654;BME280;66556;52.008;5.432;2023-01-28T00:43:09;102993.0;;;17.07;32.42
59654;BME280;66556;52.008;5.432;2023-01-28T00:46:22;102996.0;;;16.5;33.42
59654;BME280;66556;52.008;5.432;2023-01-28T00:47:59;102992.0;;;16.65;32.89
59654;BME280;66556;52.008;5.432;2023-01-28T00:49:35;102994.0;;;16.61;32.65
59654;BME280;66556;52.008;5.432;2023-01-28T00:52:51;102992.0;;;15.62;34.1
59654;BME280;66556;52.008;5.432;2023-01-28T00:54:27;102992.0;;;16.43;32.79
59654;BME280;66556;52.008;5.432;2023-01-28T00:56:05;102990.00000000001;;;16.47;32.64
59654;BME280;66556;52.008;5.432;2023-01-28T00:59:18;102992.0;;;16.7;32.64
59654;BME280;66556;52.008;5.432;2023-01-28T01:00:55;102989.00000000001;;;16.98;31.73
59654;BME280;66556;52.008;5.432;2023-01-28T01:02:31;102994.0;;;16.96;31.99
59654;BME280;66556;52.008;5.432;2023-01-28T01:04:08;102993.0;;;16.43;32.1
59654;BME280;66556;52.008;5.432;2023-01-28T01:07:22;102993.0;;;16.96;31.51
59654;BME280;66556;52.008;5.432;2023-01-28T01:08:59;102991.00000000001;;;17.02;31.15
59654;BME280;66556;52.008;5.432;2023-01-28T01:10:37;102991.00000000001;;;17.14;31.54
59654;BME280;66556;52.008;5.432;2023-01-28T01:13:52;102988.00000000001;;;16.97;31.18
59654;BME280;66556;52.008;5.432;2023-01-28T01:15:28;102988.00000000001;;;17.64;30.39
59654;BME280;66556;52.008;5.432;2023-01-28T01:17:04;102983.99999999999;;;17.53;30.46
59654;BME280;66556;52.008;5.432;2023-01-28T01:18:41;102977.0;;;16.96;30.99
59654;BME280;66556;52.008;5.432;2023-01-28T01:21:58;102986.99999999999;;;17.43;30.37
59654;BME280;66556;52.008;5.432;2023-01-28T01:23:34;102991.00000000001;;;17.16;30.88
59654;BME280;66556;52.008;5.432;2023-01-28T01:25:11;102990.00000000001;;;16.91;31.0
59654;BME280;66556;52.008;5.432;2023-01-28T01:28:25;102984.99999999999;;;16.59;31.61
59654;BME280;66556;52.008;5.432;2023-01-28T01:30:01;102991.00000000001;;;16.86;31.64
59654;BME280;66556;52.008;5.432;2023-01-28T01:31:38;102991.00000000001;;;16.84;31.73
59654;BME280;66556;52.008;5.432;2023-01-28T01:34:52;102989.00000000001;;;16.79;31.96
59654;BME280;66556;52.008;5.432;2023-01-28T01:36:28;102983.0;;;16.61;32.35
59654;BME280;66556;52.008;5.432;2023-01-28T01:38:05;102980.0;;;16.93;31.88
59654;BME280;66556;52.008;5.432;2023-01-28T01:39:42;102980.0;;;17.11;31.62
59654;BME280;66556;52.008;5.432;2023-01-28T01:43:00;102979.0;;;16.86;32.15
59654;BME280;66556;52.008;5.432;2023-01-28T01:44:56;102981.0;;;16.93;31.98
59654;BME280;66556;52.008;5.432;2023-01-28T01:46:35;102983.99999999999;;;17.34;31.14
59654;BME280;66556;52.008;5.432;2023-01-28T01:48:20;102983.99999999999;;;17.0;31.57
59654;BME280;66556;52.008;5.432;2023-01-28T01:51:42;102983.99999999999;;;16.59;32.39
59654;BME280;66556;52.008;5.432;2023-01-28T01:53:22;102993.0;;;16.77;32.28
59654;BME280;66556;52.008;5.432;2023-01-28T01:55:05;102993.0;;;16.5;32.8
59654;BME280;66556;52.008;5.432;2023-01-28T01:56:46;102997.0;;;16.79;32.42
59654;BME280;66556;52.008;5.432;2023-01-28T01:58:28;102998.0;;;16.59;32.74
59654;BME280;66556;52.008;5.432;2023-01-28T02:01:46;102998.0;;;16.55;33.08
59654;BME280;66556;52.008;5.432;2023-01-28T02:03:27;103005.0;;;16.89;32.58
59654;BME280;66556;52.008;5.432;2023-01-28T02:05:08;103001.0;;;16.97;32.0
59654;BME280;66556;52.008;5.432;2023-01-28T02:06:46;102999.0;;;16.95;31.78
59654;BME280;66556;52.008;5.432;2023-01-28T02:09:58;103001.0;;;17.2;31.62
59654;BME280;66556;52.008;5.432;2023-01-28T02:11:35;103002.0;;;17.34;31.0
59654;BME280;66556;52.008;5.432;2023-01-28T02:13:14;103000.0;;;17.48;30.87
59654;BME280;66556;52.008;5.432;2023-01-28T02:21:29;103001.0;;;16.84;32.05
59654;BME280;66556;52.008;5.432;2023-01-28T02:22:27;103002.0;;;16.95;32.08
59654;BME280;66556;52.008;5.432;2023-01-28T02:24:23;102995.0;;;16.68;32.79
59654;BME280;66556;52.008;5.432;2023-01-28T02:27:18;102991.00000000001;;;16.89;32.1
59654;BME280;66556;52.008;5.432;2023-01-28T02:29:09;102993.0;;;16.7;32.8
59654;BME280;66556;52.008;5.432;2023-01-28T02:30:53;102991.00000000001;;;16.21;33.53
59654;BME280;66556;52.008;5.432;2023-01-28T02:32:39;102996.0;;;16.07;33.96
59654;BME280;66556;52.008;5.432;2023-01-28T02:34:29;102998.0;;;16.39;33.17
59654;BME280;66556;52.008;5.432;2023-01-28T02:36:22;103003.0;;;16.86;32.67
59654;BME280;66556;52.008;5.432;2023-01-28T02:39:48;103001.0;;;16.45;32.92
59654;BME280;66556;52.008;5.432;2023-01-28T02:41:32;103004.0;;;16.31;33.36
59654;BME280;66556;52.008;5.432;2023-01-28T02:43:13;103001.0;;;16.23;33.49
59654;BME280;66556;52.008;5.432;2023-01-28T02:44:50;103003.0;;;16.25;33.49
59654;BME280;66556;52.008;5.432;2023-01-28T02:49:40;102999.0;;;16.27;33.71
59654;BME280;66556;52.008;5.432;2023-01-28T02:51:26;102997.0;;;16.45;33.1
59654;BME280;66556;52.008;5.432;2023-01-28T02:53:44;102996.0;;;16.13;34.08
59654;BME280;66556;52.008;5.432;2023-01-28T02:55:54;103004.0;;;16.36;33.68
59654;BME280;66556;52.008;5.432;2023-01-28T02:57:38;102998.0;;;16.25;34.31
59654;BME280;66556;52.008;5.432;2023-01-28T02:59:35;102999.0;;;16.34;34.17
59654;BME280;66556;52.008;5.432;2023-01-28T03:01:19;103006.0;;;16.93;32.71
59654;BME280;66556;52.008;5.432;2023-01-28T03:04:54;103000.0;;;16.55;33.75
59654;BME280;66556;52.008;5.432;2023-01-28T03:06:39;103006.0;;;16.45;34.0
59654;BME280;66556;52.008;5.432;2023-01-28T03:09:26;103008.0;;;15.01;35.83
59654;BME280;66556;52.008;5.432;2023-01-28T03:36:54;102999.0;;;15.58;35.6
59654;BME280;66556;52.008;5.432;2023-01-28T03:38:41;103001.0;;;15.81;35.68
59654;BME280;66556;52.008;5.432;2023-01-28T03:40:18;102993.0;;;15.78;35.39
59654;BME280;66556;52.008;5.432;2023-01-28T03:41:58;102992.0;;;15.2;35.96
59654;BME280;66556;52.008;5.432;2023-01-28T03:43:35;103001.0;;;15.64;35.31
59654;BME280;66556;52.008;5.432;2023-01-28T03:45:13;102999.0;;;14.19;38.76
59654;BME280;66556;52.008;5.432;2023-01-28T03:48:27;102993.0;;;15.07;37.17
59654;BME280;66556;52.008;5.432;2023-01-28T03:50:07;102992.0;;;15.81;35.42
59654;BME280;66556;52.008;5.432;2023-01-28T03:51:45;103001.0;;;16.14;34.65
59654;BME280;66556;52.008;5.432;2023-01-28T03:54:58;103003.0;;;15.87;35.32
59654;BME280;66556;52.008;5.432;2023-01-28T03:56:36;103006.0;;;15.73;35.57
59654;BME280;66556;52.008;5.432;2023-01-28T03:58:13;103006.0;;;16.61;33.39
59654;BME280;66556;52.008;5.432;2023-01-28T03:59:52;103017.0;;;16.11;34.92
59654;BME280;66556;52.008;5.432;2023-01-28T04:03:17;103004.0;;;16.4;34.18
59654;BME280;66556;52.008;5.432;2023-01-28T04:04:53;103008.99999999999;;;16.0;35.28
59654;BME280;66556;52.008;5.432;2023-01-28T04:06:30;103005.0;;;16.03;35.31
59654;BME280;66556;52.008;5.432;2023-01-28T04:08:06;103002.0;;;16.28;34.71
59654;BME280;66556;52.008;5.432;2023-01-28T04:11:20;102997.0;;;16.66;33.56
59654;BME280;66556;52.008;5.432;2023-01-28T04:12:56;103002.0;;;16.66;33.1
59654;BME280;66556;52.008;5.432;2023-01-28T04:14:32;103009.99999999999;;;16.65;33.04
59654;BME280;66556;52.008;5.432;2023-01-28T04:17:45;103011.99999999999;;;15.87;34.1
59654;BME280;66556;52.008;5.432;2023-01-28T04:19:24;103014.00000000001;;;15.99;33.89
59654;BME280;66556;52.008;5.432;2023-01-28T04:21:00;103017.0;;;16.2;33.37
59654;BME280;66556;52.008;5.432;2023-01-28T04:24:13;103015.00000000001;;;16.18;33.22
59654;BME280;66556;52.008;5.432;2023-01-28T04:25:49;103013.00000000001;;;15.82;34.49
59654;BME280;66556;52.008;5.432;2023-01-28T04:27:26;103017.0;;;16.04;33.97
59654;BME280;66556;52.008;5.432;2023-01-28T04:29:02;103017.0;;;16.02;33.99
59654;BME280;66556;52.008;5.432;2023-01-28T04:32:14;103019.0;;;15.92;33.82
59654;BME280;66556;52.008;5.432;2023-01-28T04:33:51;103014.00000000001;;;16.14;33.53
59654;BME280;66556;52.008;5.432;2023-01-28T04:35:27;103016.00000000001;;;15.74;34.28
59654;BME280;66556;52.008;5.432;2023-01-28T04:38:39;103020.0;;;15.97;34.28
59654;BME280;66556;52.008;5.432;2023-01-28T04:40:16;103025.0;;;15.49;34.15
59654;BME280;66556;52.008;5.432;2023-01-28T04:41:52;103034.99999999999;;;15.63;33.86
59654;BME280;66556;52.008;5.432;2023-01-28T04:45:06;103040.00000000001;;;15.23;34.19
59654;BME280;66556;52.008;5.432;2023-01-28T04:46:43;103040.00000000001;;;15.93;33.68
59654;BME280;66556;52.008;5.432;2023-01-28T04:48:19;103031.0;;;15.45;34.26
59654;BME280;66556;52.008;5.432;2023-01-28T04:49:55;103034.99999999999;;;15.56;33.89
59654;BME280;66556;52.008;5.432;2023-01-28T04:53:08;103041.00000000001;;;15.3;34.89
59654;BME280;66556;52.008;5.432;2023-01-28T04:54:45;103033.99999999999;;;15.4;33.85
59654;BME280;66556;52.008;5.432;2023-01-28T04:56:22;103036.99999999999;;;15.38;34.28
59654;BME280;66556;52.008;5.432;2023-01-28T04:59:34;103028.0;;;15.31;34.47
59654;BME280;66556;52.008;5.432;2023-01-28T05:01:10;103031.0;;;15.35;33.83
59654;BME280;66556;52.008;5.432;2023-01-28T05:02:46;103026.0;;;15.33;33.29
59654;BME280;66556;52.008;5.432;2023-01-28T05:05:59;103031.0;;;15.08;34.0
59654;BME280;66556;52.008;5.432;2023-01-28T05:07:35;103024.0;;;15.26;33.49
59654;BME280;66556;52.008;5.432;2023-01-28T05:09:12;103026.0;;;14.89;34.15
59654;BME280;66556;52.008;5.432;2023-01-28T05:12:24;103025.0;;;15.34;33.46
59654;BME280;66556;52.008;5.432;2023-01-28T05:14:01;103020.0;;;15.44;32.94
59654;BME280;66556;52.008;5.432;2023-01-28T05:15:37;103018.0;;;15.49;32.47
59654;BME280;66556;52.008;5.432;2023-01-28T05:17:14;103020.0;;;15.5;32.9
59654;BME280;66556;52.008;5.432;2023-01-28T05:20:26;103022.0;;;15.69;32.01
59654;BME280;66556;52.008;5.432;2023-01-28T05:22:02;103021.0;;;15.51;32.12
59654;BME280;66556;52.008;5.432;2023-01-28T05:23:38;103021.0;;;15.16;33.69
59654;BME280;66556;52.008;5.432;2023-01-28T05:26:50;103020.0;;;15.55;32.96
59654;BME280;66556;52.008;5.432;2023-01-28T05:28:29;103017.0;;;15.58;33.17
59654;BME280;66556;52.008;5.432;2023-01-28T05:30:06;103018.0;;;15.26;33.33
59654;BME280;66556;52.008;5.432;2023-01-28T05:33:19;103017.0;;;15.25;32.96
59654;BME280;66556;52.008;5.432;2023-01-28T05:34:55;103023.0;;;15.31;33.6
59654;BME280;66556;52.008;5.432;2023-01-28T05:36:31;103026.0;;;15.07;33.35
59654;BME280;66556;52.008;5.432;2023-01-28T05:38:07;103017.0;;;15.11;33.53
59654;BME280;66556;52.008;5.432;2023-01-28T05:41:20;103025.0;;;14.71;34.46
59654;BME280;66556;52.008;5.432;2023-01-28T05:42:56;103023.0;;;14.94;34.32
59654;BME280;66556;52.008;5.432;2023-01-28T05:44:32;103026.0;;;14.71;34.57
59654;BME280;66556;52.008;5.432;2023-01-28T05:47:44;103024.0;;;14.68;33.35
59654;BME280;66556;52.008;5.432;2023-01-28T05:49:21;103021.0;;;15.25;32.11
59654;BME280;66556;52.008;5.432;2023-01-28T05:50:58;103026.0;;;15.42;32.07
59654;BME280;66556;52.008;5.432;2023-01-28T05:54:11;103030.0;;;15.24;31.83
59654;BME280;66556;52.008;5.432;2023-01-28T05:55:47;103033.0;;;15.02;32.68
59654;BME280;66556;52.008;5.432;2023-01-28T05:57:24;103028.0;;;15.33;31.93
59654;BME280;66556;52.008;5.432;2023-01-28T05:59:00;103025.0;;;15.23;32.71
59654;BME280;66556;52.008;5.432;2023-01-28T06:02:13;103029.0;;;15.09;33.22
59654;BME280;66556;52.008;5.432;2023-01-28T06:03:50;103024.0;;;15.17;32.96
59654;BME280;66556;52.008;5.432;2023-01-28T06:05:26;103026.0;;;15.62;32.17
59654;BME280;66556;52.008;5.432;2023-01-28T06:08:38;103021.0;;;15.62;31.98
59654;BME280;66556;52.008;5.432;2023-01-28T06:10:16;103020.0;;;15.3;32.75
59654;BME280;66556;52.008;5.432;2023-01-28T06:11:53;103025.0;;;15.44;32.21
59654;BME280;66556;52.008;5.432;2023-01-28T06:15:06;103021.0;;;15.48;32.35
59654;BME280;66556;52.008;5.432;2023-01-28T06:16:43;103022.0;;;15.68;31.95
59654;BME280;66556;52.008;5.432;2023-01-28T06:18:19;103024.0;;;15.66;32.49
59654;BME280;66556;52.008;5.432;2023-01-28T06:19:55;103027.0;;;15.36;32.78
59654;BME280;66556;52.008;5.432;2023-01-28T06:23:08;103026.0;;;15.25;32.46
59654;BME280;66556;52.008;5.432;2023-01-28T06:24:45;103030.0;;;15.78;31.51
59654;BME280;66556;52.008;5.432;2023-01-28T06:26:21;103036.99999999999;;;15.67;31.77
59654;BME280;66556;52.008;5.432;2023-01-28T06:29:34;103031.0;;;15.07;33.05
59654;BME280;66556;52.008;5.432;2023-01-28T06:31:11;103027.0;;;15.34;32.6
59654;BME280;66556;52.008;5.432;2023-01-28T06:32:53;103023.0;;;15.32;32.07
59654;BME280;66556;52.008;5.432;2023-01-28T06:36:06;103026.0;;;15.14;32.64
59654;BME280;66556;52.008;5.432;2023-01-28T06:37:44;103018.0;;;15.4;31.55
59654;BME280;66556;52.008;5.432;2023-01-28T06:39:20;103018.0;;;15.43;31.88
59654;BME280;66556;52.008;5.432;2023-01-28T06:40:57;103022.0;;;15.66;31.31
59654;BME280;66556;52.008;5.432;2023-01-28T06:44:10;103026.0;;;15.33;32.19
59654;BME280;66556;52.008;5.432;2023-01-28T06:45:47;103031.0;;;14.81;33.4
59654;BME280;66556;52.008;5.432;2023-01-28T06:47:23;103034.99999999999;;;15.02;33.3
59654;BME280;66556;52.008;5.432;2023-01-28T06:50:35;103034.99999999999;;;14.95;33.54
59654;BME280;66556;52.008;5.432;2023-01-28T06:52:11;103034.99999999999;;;14.97;33.76
59654;BME280;66556;52.008;5.432;2023-01-28T06:53:47;103042.0;;;14.57;34.35
59654;BME280;66556;52.008;5.432;2023-01-28T06:57:00;103046.0;;;14.73;33.85
59654;BME280;66556;52.008;5.432;2023-01-28T06:58:36;103052.0;;;14.93;33.94
59654;BME280;66556;52.008;5.432;2023-01-28T07:00:15;103055.0;;;15.73;32.18
59654;BME280;66556;52.008;5.432;2023-01-28T07:01:51;103052.0;;;15.47;32.55
59654;BME280;66556;52.008;5.432;2023-01-28T07:05:04;103057.0;;;15.56;32.49
59654;BME280;66556;52.008;5.432;2023-01-28T07:06:40;103061.99999999999;;;15.49;31.96
59654;BME280;66556;52.008;5.432;2023-01-28T07:08:17;103061.99999999999;;;14.99;32.33
59654;BME280;66556;52.008;5.432;2023-01-28T07:11:29;103058.0;;;15.2;32.74
59654;BME280;66556;52.008;5.432;2023-01-28T07:13:05;103059.99999999999;;;15.11;32.92
59654;BME280;66556;52.008;5.432;2023-01-28T07:14:41;103064.00000000001;;;15.31;32.21
59654;BME280;66556;52.008;5.432;2023-01-28T07:17:53;103054.0;;;15.05;32.99
59654;BME280;66556;52.008;5.432;2023-01-28T07:19:30;103073.0;;;15.06;32.83
59654;BME280;66556;52.008;5.432;2023-01-28T07:21:07;103076.0;;;14.99;33.15
59654;BME280;66556;52.008;5.432;2023-01-28T07:22:44;103076.0;;;14.54;33.6
59654;BME280;66556;52.008;5.432;2023-01-28T07:26:00;103068.0;;;15.13;32.53
59654;BME280;66556;52.008;5.432;2023-01-28T07:27:36;103069.0;;;15.68;31.48
59654;BME280;66556;52.008;5.432;2023-01-28T07:29:12;103067.0;;;15.55;32.0
59654;BME280;66556;52.008;5.432;2023-01-28T07:32:26;103070.0;;;15.01;32.54
59654;BME280;66556;52.008;5.432;2023-01-28T07:34:03;103068.0;;;15.31;31.66
59654;BME280;66556;52.008;5.432;2023-01-28T07:35:39;103075.0;;;14.99;32.74
59654;BME280;66556;52.008;5.432;2023-01-28T07:38:51;103071.0;;;15.03;32.82
59654;BME280;66556;52.008;5.432;2023-01-28T07:40:28;103074.0;;;14.91;32.92
59654;BME280;66556;52.008;5.432;2023-01-28T07:42:04;103079.0;;;15.43;32.24
59654;BME280;66556;52.008;5.432;2023-01-28T07:43:40;103079.0;;;14.91;33.55
59654;BME280;66556;52.008;5.432;2023-01-28T07:46:53;103077.0;;;15.52;32.5
59654;BME280;66556;52.008;5.432;2023-01-28T07:48:30;103086.99999999999;;;15.88;31.48
59654;BME280;66556;52.008;5.432;2023-01-28T07:50:08;103091.00000000001;;;15.75;32.1
59654;BME280;66556;52.008;5.432;2023-01-28T07:53:22;103091.00000000001;;;15.3;33.11
59654;BME280;66556;52.008;5.432;2023-01-28T07:54:58;103091.00000000001;;;15.53;32.57
59654;BME280;66556;52.008;5.432;2023-01-28T07:56:34;103098.0;;;15.95;31.6
59654;BME280;66556;52.008;5.432;2023-01-28T07:59:48;103107.0;;;15.63;32.05
59654;BME280;66556;52.008;5.432;2023-01-28T08:01:24;103107.0;;;15.62;32.49
59654;BME280;66556;52.008;5.432;2023-01-28T08:03:03;103109.99999999999;;;16.02;31.5
59654;BME280;66556;52.008;5.432;2023-01-28T08:04:40;103108.0;;;15.52;32.94
59654;BME280;66556;52.008;5.432;2023-01-28T08:07:53;103103.0;;;15.68;32.26
59654;BME280;66556;52.008;5.432;2023-01-28T08:09:29;103102.0;;;15.73;32.33
59654;BME280;66556;52.008;5.432;2023-01-28T08:11:06;103100.0;;;15.48;32.6
59654;BME280;66556;52.008;5.432;2023-01-28T08:14:27;103106.0;;;15.4;32.35
59654;BME280;66556;52.008;5.432;2023-01-28T08:16:04;103105.0;;;15.4;32.61
59654;BME280;66556;52.008;5.432;2023-01-28T08:17:41;103107.0;;;15.33;32.6
59654;BME280;66556;52.008;5.432;2023-01-28T08:19:17;103114.00000000001;;;15.28;32.79
59654;BME280;66556;52.008;5.432;2023-01-28T08:22:31;103117.0;;;15.3;32.15
59654;BME280;66556;52.008;5.432;2023-01-28T08:24:07;103118.0;;;15.08;33.11
59654;BME280;66556;52.008;5.432;2023-01-28T08:25:43;103122.0;;;15.06;33.05
59654;BME280;66556;52.008;5.432;2023-01-28T08:28:57;103121.0;;;15.11;32.93
59654;BME280;66556;52.008;5.432;2023-01-28T08:30:33;103133.99999999999;;;15.21;32.68
59654;BME280;66556;52.008;5.432;2023-01-28T08:32:10;103131.0;;;14.59;33.06
59654;BME280;66556;52.008;5.432;2023-01-28T08:33:46;103130.0;;;14.88;32.54
59654;BME280;66556;52.008;5.432;2023-01-28T08:36:58;103140.00000000001;;;14.79;32.46
59654;BME280;66556;52.008;5.432;2023-01-28T08:38:34;103133.0;;;15.11;32.07
59654;BME280;66556;52.008;5.432;2023-01-28T08:40:11;103136.99999999999;;;15.32;32.12
59654;BME280;66556;52.008;5.432;2023-01-28T08:43:24;103130.0;;;15.59;31.84
59654;BME280;66556;52.008;5.432;2023-01-28T08:45:01;103128.0;;;15.25;32.6
59654;BME280;66556;52.008;5.432;2023-01-28T08:46:37;103124.0;;;15.44;32.19
59654;BME280;66556;52.008;5.432;2023-01-28T08:49:52;103133.99999999999;;;15.25;32.17
59654;BME280;66556;52.008;5.432;2023-01-28T08:51:28;103132.0;;;15.88;31.11
59654;BME280;66556;52.008;5.432;2023-01-28T08:53:07;103129.0;;;15.4;32.51
59654;BME280;66556;52.008;5.432;2023-01-28T08:54:45;103126.0;;;15.83;31.83
59654;BME280;66556;52.008;5.432;2023-01-28T08:58:02;103131.0;;;15.42;33.22
59654;BME280;66556;52.008;5.432;2023-01-28T08:59:44;103140.00000000001;;;15.77;31.99
59654;BME280;66556;52.008;5.432;2023-01-28T09:01:20;103143.0;;;15.71;31.87
59654;BME280;66556;52.008;5.432;2023-01-28T09:04:32;103143.0;;;16.23;30.65
59654;BME280;66556;52.008;5.432;2023-01-28T09:06:08;103148.0;;;15.69;31.91
59654;BME280;66556;52.008;5.432;2023-01-28T09:07:45;103155.0;;;15.6;32.15
59654;BME280;66556;52.008;5.432;2023-01-28T09:09:21;103152.0;;;15.57;32.32
59654;BME280;66556;52.008;5.432;2023-01-28T09:12:35;103155.0;;;15.82;32.67
59654;BME280;66556;52.008;5.432;2023-01-28T09:14:12;103161.99999999999;;;16.34;31.39
59654;BME280;66556;52.008;5.432;2023-01-28T09:15:50;103166.00000000001;;;16.29;30.86
59654;BME280;66556;52.008;5.432;2023-01-28T09:19:02;103166.00000000001;;;16.04;31.96
59654;BME280;66556;52.008;5.432;2023-01-28T09:20:38;103177.0;;;15.82;31.95
59654;BME280;66556;52.008;5.432;2023-01-28T09:22:16;103170.0;;;16.2;31.66
59654;BME280;66556;52.008;5.432;2023-01-28T09:25:31;103165.00000000001;;;15.84;32.18
59654;BME280;66556;52.008;5.432;2023-01-28T09:27:08;103174.0;;;15.88;32.22
59654;BME280;66556;52.008;5.432;2023-01-28T09:28:46;103177.0;;;15.68;32.24
59654;BME280;66556;52.008;5.432;2023-01-28T09:30:23;103168.0;;;16.03;32.28
59654;BME280;66556;52.008;5.432;2023-01-28T09:33:39;103168.0;;;15.64;32.24
59654;BME280;66556;52.008;5.432;2023-01-28T09:35:17;103167.0;;;15.66;32.4
59654;BME280;66556;52.008;5.432;2023-01-28T09:36:53;103171.0;;;15.79;32.08
59654;BME280;66556;52.008;5.432;2023-01-28T09:40:10;103172.0;;;15.97;31.46
59654;BME280;66556;52.008;5.432;2023-01-28T09:42:03;103172.0;;;15.81;30.99
59654;BME280;66556;52.008;5.432;2023-01-28T09:44:02;103178.0;;;15.36;32.12
59654;BME280;66556;52.008;5.432;2023-01-28T09:45:43;103184.99999999999;;;15.08;32.82
59654;BME280;66556;52.008;5.432;2023-01-28T09:47:25;103190.00000000001;;;14.91;33.15
59654;BME280;66556;52.008;5.432;2023-01-28T09:50:53;103183.0;;;14.7;34.26
59654;BME280;66556;52.008;5.432;2023-01-28T09:52:33;103183.99999999999;;;14.92;32.85
59654;BME280;66556;52.008;5.432;2023-01-28T09:54:20;103188.00000000001;;;15.32;32.28
59654;BME280;66556;52.008;5.432;2023-01-28T09:56:04;103189.00000000001;;;15.3;32.44
59654;BME280;66556;52.008;5.432;2023-01-28T09:57:45;103189.00000000001;;;15.23;32.9
59654;BME280;66556;52.008;5.432;2023-01-28T10:01:12;103189.00000000001;;;15.02;32.65
59654;BME280;66556;52.008;5.432;2023-01-28T10:03:17;103192.0;;;14.78;33.9
59654;BME280;66556;52.008;5.432;2023-01-28T10:05:16;103190.00000000001;;;14.84;34.83
59654;BME280;66556;52.008;5.432;2023-01-28T10:07:04;103186.99999999999;;;15.15;34.44
59654;BME280;66556;52.008;5.432;2023-01-28T10:09:11;103192.0;;;14.87;34.67
59654;BME280;66556;52.008;5.432;2023-01-28T10:11:14;103196.0;;;15.01;34.49
59654;BME280;66556;52.008;5.432;2023-01-28T10:13:03;103199.0;;;14.87;34.68
59654;BME280;66556;52.008;5.432;2023-01-28T10:14:57;103206.0;;;15.16;33.94
59654;BME280;66556;52.008;5.432;2023-01-28T10:16:42;103208.99999999999;;;15.44;33.31
59654;BME280;66556;52.008;5.432;2023-01-28T10:18:29;103208.99999999999;;;15.06;33.85
59654;BME280;66556;52.008;5.432;2023-01-28T10:22:00;103204.0;;;15.31;33.37
59654;BME280;66556;52.008;5.432;2023-01-28T10:23:45;103205.0;;;15.07;32.97
59654;BME280;66556;52.008;5.432;2023-01-28T10:25:31;103201.0;;;14.84;33.8
59654;BME280;66556;52.008;5.432;2023-01-28T10:27:11;103198.0;;;13.95;38.65
59654;BME280;66556;52.008;5.432;2023-01-28T10:28:55;103192.0;;;15.32;36.54
59654;BME280;66556;52.008;5.432;2023-01-28T10:32:26;103183.99999999999;;;15.99;36.89
59654;BME280;66556;52.008;5.432;2023-01-28T10:34:04;103176.0;;;16.75;35.5
59654;BME280;66556;52.008;5.432;2023-01-28T10:35:41;103182.0;;;17.18;33.19
59654;BME280;66556;52.008;5.432;2023-01-28T10:37:18;103179.0;;;17.21;32.18
59654;BME280;66556;52.008;5.432;2023-01-28T10:40:32;103171.0;;;17.46;31.93
59654;BME280;66556;52.008;5.432;2023-01-28T10:42:16;103168.0;;;17.66;32.0
59654;BME280;66556;52.008;5.432;2023-01-28T10:44:02;103167.0;;;17.78;31.75
59654;BME280;66556;52.008;5.432;2023-01-28T10:45:51;103167.0;;;18.11;31.2
59654;BME280;66556;52.008;5.432;2023-01-28T10:49:15;103167.0;;;18.53;31.28
59654;BME280;66556;52.008;5.432;2023-01-28T10:50:56;103166.00000000001;;;17.79;27.49
59654;BME280;66556;52.008;5.432;2023-01-28T10:52:32;103157.0;;;18.09;28.85
59654;BME280;66556;52.008;5.432;2023-01-28T10:54:25;103147.0;;;18.87;29.4
59654;BME280;66556;52.008;5.432;2023-01-28T10:56:05;103143.0;;;19.25;28.36
59654;BME280;66556;52.008;5.432;2023-01-28T10:59:24;103142.0;;;19.53;28.98
59654;BME280;66556;52.008;5.432;2023-01-28T11:01:04;103144.0;;;19.3;28.16
59654;BME280;66556;52.008;5.432;2023-01-28T11:02:42;103145.0;;;19.52;28.12
59654;BME280;66556;52.008;5.432;2023-01-28T11:06:00;103142.0;;;19.25;27.49
59654;BME280;66556;52.008;5.432;2023-01-28T11:07:37;103129.0;;;20.03;26.82
59654;BME280;66556;52.008;5.432;2023-01-28T11:09:23;103126.0;;;20.45;26.84
59654;BME280;66556;52.008;5.432;2023-01-28T11:11:00;103129.0;;;20.29;25.89
59654;BME280;66556;52.008;5.432;2023-01-28T11:14:18;103131.0;;;20.5;26.43
59654;BME280;66556;52.008;5.432;2023-01-28T11:15:59;103122.0;;;20.36;25.95